KESN/ESN METAR and TAF weather

Enter ICAO airport designator
Station Type Date Time Source
KESN METAR 2019/08/24 07:59 UTC NOAA

KESN 240759Z AUTO 36004KT 10SM CLR 19/16 A3012 RMK AO2 T01850159


Station Type Date Time Source
KESN Decoded METAR 2019/08/24 07:59 UTC NOAA

Station name not available
Aug 24, 2019 - 03:59 AM EDT / 2019.08.24 0759 UTC
Wind: from the N (360 degrees) at 5 MPH (4 KT):0
Visibility: 10 mile(s):0
Sky conditions: clear
Temperature: 65.3 F (18.5 C)
Dew Point: 60.6 F (15.9 C)
Relative Humidity: 84%
Pressure (altimeter): 30.12 in. Hg (1019 hPa)
ob: KESN 240759Z AUTO 36004KT 10SM CLR 19/16 A3012 RMK AO2 T01850159
cycle: 8

Station Type Date Time Source
KESN TAF UTC NOAA

Error!

Example: see airport list